sensor_id;sensor_type;location;lat;lon;timestamp;P1;durP1;ratioP1;P2;durP2;ratioP2
76477;SDS011;65309;49.790;18.972;2023-08-06T00:03:28;136.15;;;18.73;;
76477;SDS011;65309;49.790;18.972;2023-08-06T00:08:30;214.93;;;25.88;;
76477;SDS011;65309;49.790;18.972;2023-08-06T00:13:33;188.20;;;23.50;;
76477;SDS011;65309;49.790;18.972;2023-08-06T00:18:35;229.40;;;23.02;;
76477;SDS011;65309;49.790;18.972;2023-08-06T00:23:37;85.78;;;18.13;;
76477;SDS011;65309;49.790;18.972;2023-08-06T00:28:41;116.60;;;18.85;;
76477;SDS011;65309;49.790;18.972;2023-08-06T00:33:43;84.10;;;16.95;;
76477;SDS011;65309;49.790;18.972;2023-08-06T00:38:45;76.57;;;16.80;;
76477;SDS011;65309;49.790;18.972;2023-08-06T00:43:48;59.05;;;14.55;;
76477;SDS011;65309;49.790;18.972;2023-08-06T01:09:29;14.07;;;7.78;;
76477;SDS011;65309;49.790;18.972;2023-08-06T01:14:37;11.50;;;6.95;;
76477;SDS011;65309;49.790;18.972;2023-08-06T01:19:49;11.35;;;6.53;;
76477;SDS011;65309;49.790;18.972;2023-08-06T01:24:53;8.70;;;5.13;;
76477;SDS011;65309;49.790;18.972;2023-08-06T01:29:57;7.47;;;3.35;;
76477;SDS011;65309;49.790;18.972;2023-08-06T01:35:05;3.75;;;2.35;;
76477;SDS011;65309;49.790;18.972;2023-08-06T01:40:11;4.53;;;2.60;;
76477;SDS011;65309;49.790;18.972;2023-08-06T01:45:14;3.65;;;2.55;;
76477;SDS011;65309;49.790;18.972;2023-08-06T01:50:16;4.82;;;2.65;;
76477;SDS011;65309;49.790;18.972;2023-08-06T01:55:20;6.85;;;3.00;;
76477;SDS011;65309;49.790;18.972;2023-08-06T02:00:22;3.80;;;2.45;;
76477;SDS011;65309;49.790;18.972;2023-08-06T02:05:24;4.07;;;2.80;;
76477;SDS011;65309;49.790;18.972;2023-08-06T02:10:27;6.93;;;3.40;;
76477;SDS011;65309;49.790;18.972;2023-08-06T02:15:29;6.53;;;2.90;;
76477;SDS011;65309;49.790;18.972;2023-08-06T02:20:31;4.05;;;2.38;;
76477;SDS011;65309;49.790;18.972;2023-08-06T02:25:35;3.90;;;2.78;;
76477;SDS011;65309;49.790;18.972;2023-08-06T02:30:37;3.88;;;2.78;;
76477;SDS011;65309;49.790;18.972;2023-08-06T02:35:39;4.35;;;2.83;;
76477;SDS011;65309;49.790;18.972;2023-08-06T02:40:45;7.00;;;3.67;;
76477;SDS011;65309;49.790;18.972;2023-08-06T02:45:48;6.13;;;3.70;;
76477;SDS011;65309;49.790;18.972;2023-08-06T02:50:50;7.60;;;3.78;;
76477;SDS011;65309;49.790;18.972;2023-08-06T03:00:59;6.32;;;4.32;;
76477;SDS011;65309;49.790;18.972;2023-08-06T03:13:09;6.50;;;3.92;;
76477;SDS011;65309;49.790;18.972;2023-08-06T03:18:11;8.82;;;4.22;;
76477;SDS011;65309;49.790;18.972;2023-08-06T03:28:16;9.80;;;4.05;;
76477;SDS011;65309;49.790;18.972;2023-08-06T03:33:18;9.65;;;4.53;;
76477;SDS011;65309;49.790;18.972;2023-08-06T03:38:20;8.73;;;3.60;;
76477;SDS011;65309;49.790;18.972;2023-08-06T03:43:24;9.15;;;4.28;;
76477;SDS011;65309;49.790;18.972;2023-08-06T03:48:26;7.28;;;3.45;;
76477;SDS011;65309;49.790;18.972;2023-08-06T03:53:28;5.78;;;3.13;;
76477;SDS011;65309;49.790;18.972;2023-08-06T03:58:31;5.75;;;3.17;;
76477;SDS011;65309;49.790;18.972;2023-08-06T04:03:33;3.42;;;2.55;;
76477;SDS011;65309;49.790;18.972;2023-08-06T04:08:36;3.38;;;1.75;;
76477;SDS011;65309;49.790;18.972;2023-08-06T04:18:43;3.08;;;2.25;;
76477;SDS011;65309;49.790;18.972;2023-08-06T04:23:47;3.40;;;1.95;;
76477;SDS011;65309;49.790;18.972;2023-08-06T04:33:52;4.45;;;2.10;;
76477;SDS011;65309;49.790;18.972;2023-08-06T04:43:58;1.80;;;1.50;;
76477;SDS011;65309;49.790;18.972;2023-08-06T04:49:00;2.00;;;1.50;;
76477;SDS011;65309;49.790;18.972;2023-08-06T04:59:05;2.35;;;1.60;;
76477;SDS011;65309;49.790;18.972;2023-08-06T05:04:07;2.00;;;1.63;;
76477;SDS011;65309;49.790;18.972;2023-08-06T05:09:09;3.00;;;1.92;;
76477;SDS011;65309;49.790;18.972;2023-08-06T05:19:15;2.10;;;1.40;;
76477;SDS011;65309;49.790;18.972;2023-08-06T05:29:22;1.75;;;1.17;;
76477;SDS011;65309;49.790;18.972;2023-08-06T05:34:24;5.25;;;1.70;;
76477;SDS011;65309;49.790;18.972;2023-08-06T05:44:29;1.35;;;1.05;;
76477;SDS011;65309;49.790;18.972;2023-08-06T05:49:32;1.10;;;0.73;;
76477;SDS011;65309;49.790;18.972;2023-08-06T05:59:37;0.80;;;0.73;;
76477;SDS011;65309;49.790;18.972;2023-08-06T06:04:40;1.33;;;1.00;;
76477;SDS011;65309;49.790;18.972;2023-08-06T06:09:42;1.10;;;0.98;;
76477;SDS011;65309;49.790;18.972;2023-08-06T06:14:45;1.05;;;0.80;;
76477;SDS011;65309;49.790;18.972;2023-08-06T06:19:47;1.20;;;1.00;;
76477;SDS011;65309;49.790;18.972;2023-08-06T06:24:49;0.85;;;0.85;;
76477;SDS011;65309;49.790;18.972;2023-08-06T06:29:53;0.45;;;0.45;;
76477;SDS011;65309;49.790;18.972;2023-08-06T06:34:56;0.30;;;0.30;;
76477;SDS011;65309;49.790;18.972;2023-08-06T06:39:58;0.25;;;0.20;;
76477;SDS011;65309;49.790;18.972;2023-08-06T06:45:02;0.43;;;0.40;;
76477;SDS011;65309;49.790;18.972;2023-08-06T06:50:04;0.85;;;0.52;;
76477;SDS011;65309;49.790;18.972;2023-08-06T06:55:07;0.40;;;0.40;;
76477;SDS011;65309;49.790;18.972;2023-08-06T07:00:11;0.40;;;0.40;;
76477;SDS011;65309;49.790;18.972;2023-08-06T07:05:14;0.45;;;0.35;;
76477;SDS011;65309;49.790;18.972;2023-08-06T07:10:16;0.50;;;0.43;;
76477;SDS011;65309;49.790;18.972;2023-08-06T07:15:20;0.30;;;0.30;;
76477;SDS011;65309;49.790;18.972;2023-08-06T07:20:22;0.22;;;0.22;;
76477;SDS011;65309;49.790;18.972;2023-08-06T07:30:27;2.58;;;0.70;;
76477;SDS011;65309;49.790;18.972;2023-08-06T07:35:29;0.50;;;0.50;;
76477;SDS011;65309;49.790;18.972;2023-08-06T07:40:32;0.73;;;0.70;;
76477;SDS011;65309;49.790;18.972;2023-08-06T07:50:37;0.65;;;0.40;;
76477;SDS011;65309;49.790;18.972;2023-08-06T07:55:39;0.40;;;0.40;;
76477;SDS011;65309;49.790;18.972;2023-08-06T08:00:43;1.35;;;0.50;;
76477;SDS011;65309;49.790;18.972;2023-08-06T08:05:47;0.52;;;0.35;;
76477;SDS011;65309;49.790;18.972;2023-08-06T08:10:49;0.30;;;0.30;;
76477;SDS011;65309;49.790;18.972;2023-08-06T08:15:55;0.50;;;0.50;;
76477;SDS011;65309;49.790;18.972;2023-08-06T08:20:58;1.05;;;0.50;;
76477;SDS011;65309;49.790;18.972;2023-08-06T08:31:05;0.63;;;0.45;;
76477;SDS011;65309;49.790;18.972;2023-08-06T08:36:09;0.47;;;0.47;;
76477;SDS011;65309;49.790;18.972;2023-08-06T08:41:12;0.60;;;0.60;;
76477;SDS011;65309;49.790;18.972;2023-08-06T08:46:15;0.50;;;0.50;;
76477;SDS011;65309;49.790;18.972;2023-08-06T08:51:20;0.63;;;0.60;;
76477;SDS011;65309;49.790;18.972;2023-08-06T08:56:22;1.17;;;0.98;;
76477;SDS011;65309;49.790;18.972;2023-08-06T09:01:26;1.20;;;0.95;;
76477;SDS011;65309;49.790;18.972;2023-08-06T09:06:30;0.70;;;0.50;;
76477;SDS011;65309;49.790;18.972;2023-08-06T09:11:39;2.03;;;1.00;;
76477;SDS011;65309;49.790;18.972;2023-08-06T09:16:46;1.50;;;1.08;;
76477;SDS011;65309;49.790;18.972;2023-08-06T09:21:50;1.20;;;0.90;;
76477;SDS011;65309;49.790;18.972;2023-08-06T09:26:54;1.25;;;0.80;;
76477;SDS011;65309;49.790;18.972;2023-08-06T09:31:57;0.60;;;0.60;;
76477;SDS011;65309;49.790;18.972;2023-08-06T09:37:00;0.63;;;0.60;;
76477;SDS011;65309;49.790;18.972;2023-08-06T09:42:02;1.92;;;0.98;;
76477;SDS011;65309;49.790;18.972;2023-08-06T09:47:06;1.55;;;0.98;;
76477;SDS011;65309;49.790;18.972;2023-08-06T09:52:10;3.03;;;0.85;;
76477;SDS011;65309;49.790;18.972;2023-08-06T09:57:13;0.85;;;0.77;;
76477;SDS011;65309;49.790;18.972;2023-08-06T10:02:17;0.88;;;0.80;;
76477;SDS011;65309;49.790;18.972;2023-08-06T10:07:24;1.50;;;0.88;;
76477;SDS011;65309;49.790;18.972;2023-08-06T10:12:27;0.40;;;0.40;;
76477;SDS011;65309;49.790;18.972;2023-08-06T10:17:33;2.05;;;0.70;;
76477;SDS011;65309;49.790;18.972;2023-08-06T10:22:59;1.05;;;0.70;;
76477;SDS011;65309;49.790;18.972;2023-08-06T10:28:07;0.85;;;0.43;;
76477;SDS011;65309;49.790;18.972;2023-08-06T10:33:12;1.70;;;0.75;;
76477;SDS011;65309;49.790;18.972;2023-08-06T10:38:15;0.52;;;0.50;;
76477;SDS011;65309;49.790;18.972;2023-08-06T10:43:25;0.82;;;0.63;;
76477;SDS011;65309;49.790;18.972;2023-08-06T10:48:30;0.70;;;0.70;;
76477;SDS011;65309;49.790;18.972;2023-08-06T10:53:35;0.45;;;0.45;;
76477;SDS011;65309;49.790;18.972;2023-08-06T11:03:41;1.00;;;0.60;;
76477;SDS011;65309;49.790;18.972;2023-08-06T11:08:46;0.82;;;0.70;;
76477;SDS011;65309;49.790;18.972;2023-08-06T11:13:50;1.10;;;0.75;;
76477;SDS011;65309;49.790;18.972;2023-08-06T11:18:54;0.80;;;0.75;;
76477;SDS011;65309;49.790;18.972;2023-08-06T11:23:58;1.08;;;0.80;;
76477;SDS011;65309;49.790;18.972;2023-08-06T11:29:02;0.90;;;0.70;;
76477;SDS011;65309;49.790;18.972;2023-08-06T11:34:05;0.40;;;0.32;;
76477;SDS011;65309;49.790;18.972;2023-08-06T11:39:07;0.32;;;0.32;;
76477;SDS011;65309;49.790;18.972;2023-08-06T11:44:11;0.73;;;0.65;;
76477;SDS011;65309;49.790;18.972;2023-08-06T11:49:19;0.45;;;0.45;;
76477;SDS011;65309;49.790;18.972;2023-08-06T11:54:30;0.77;;;0.65;;
76477;SDS011;65309;49.790;18.972;2023-08-06T11:59:36;0.90;;;0.68;;
76477;SDS011;65309;49.790;18.972;2023-08-06T12:04:58;0.43;;;0.40;;
76477;SDS011;65309;49.790;18.972;2023-08-06T12:10:01;0.60;;;0.60;;
76477;SDS011;65309;49.790;18.972;2023-08-06T12:15:03;0.60;;;0.60;;
76477;SDS011;65309;49.790;18.972;2023-08-06T12:20:08;0.60;;;0.60;;
76477;SDS011;65309;49.790;18.972;2023-08-06T12:25:11;0.73;;;0.70;;
76477;SDS011;65309;49.790;18.972;2023-08-06T12:30:14;1.63;;;0.80;;
76477;SDS011;65309;49.790;18.972;2023-08-06T12:35:17;0.93;;;0.63;;
76477;SDS011;65309;49.790;18.972;2023-08-06T12:40:19;0.77;;;0.68;;
76477;SDS011;65309;49.790;18.972;2023-08-06T12:45:38;0.75;;;0.65;;
76477;SDS011;65309;49.790;18.972;2023-08-06T12:55:43;2.00;;;1.10;;
76477;SDS011;65309;49.790;18.972;2023-08-06T13:05:49;1.05;;;0.85;;
76477;SDS011;65309;49.790;18.972;2023-08-06T13:10:51;0.73;;;0.73;;
76477;SDS011;65309;49.790;18.972;2023-08-06T13:20:56;1.48;;;1.10;;
76477;SDS011;65309;49.790;18.972;2023-08-06T13:25:58;1.25;;;1.02;;
76477;SDS011;65309;49.790;18.972;2023-08-06T13:31:01;1.05;;;0.90;;
76477;SDS011;65309;49.790;18.972;2023-08-06T13:41:06;1.40;;;1.17;;
76477;SDS011;65309;49.790;18.972;2023-08-06T13:46:08;1.52;;;0.95;;
76477;SDS011;65309;49.790;18.972;2023-08-06T13:51:12;2.75;;;0.90;;
76477;SDS011;65309;49.790;18.972;2023-08-06T13:56:15;0.57;;;0.57;;
76477;SDS011;65309;49.790;18.972;2023-08-06T14:01:19;1.45;;;1.17;;
76477;SDS011;65309;49.790;18.972;2023-08-06T14:06:24;1.05;;;0.80;;
76477;SDS011;65309;49.790;18.972;2023-08-06T14:11:26;0.60;;;0.60;;
76477;SDS011;65309;49.790;18.972;2023-08-06T14:16:28;2.38;;;0.93;;
76477;SDS011;65309;49.790;18.972;2023-08-06T14:21:32;1.40;;;0.80;;
76477;SDS011;65309;49.790;18.972;2023-08-06T14:26:34;0.40;;;0.40;;
76477;SDS011;65309;49.790;18.972;2023-08-06T14:31:36;0.90;;;0.80;;
76477;SDS011;65309;49.790;18.972;2023-08-06T14:41:41;1.05;;;0.90;;
76477;SDS011;65309;49.790;18.972;2023-08-06T14:46:43;2.75;;;1.10;;
76477;SDS011;65309;49.790;18.972;2023-08-06T14:56:49;1.13;;;0.88;;
76477;SDS011;65309;49.790;18.972;2023-08-06T15:01:51;2.10;;;1.33;;
76477;SDS011;65309;49.790;18.972;2023-08-06T15:06:57;2.97;;;1.15;;
76477;SDS011;65309;49.790;18.972;2023-08-06T15:11:59;1.48;;;1.02;;
76477;SDS011;65309;49.790;18.972;2023-08-06T15:17:01;1.75;;;1.10;;
76477;SDS011;65309;49.790;18.972;2023-08-06T15:22:05;2.22;;;1.60;;
76477;SDS011;65309;49.790;18.972;2023-08-06T15:27:07;1.10;;;1.00;;
76477;SDS011;65309;49.790;18.972;2023-08-06T15:37:13;3.35;;;1.15;;
76477;SDS011;65309;49.790;18.972;2023-08-06T15:42:15;0.68;;;0.55;;
76477;SDS011;65309;49.790;18.972;2023-08-06T15:47:17;2.88;;;0.90;;
76477;SDS011;65309;49.790;18.972;2023-08-06T15:52:20;1.40;;;1.05;;
76477;SDS011;65309;49.790;18.972;2023-08-06T15:57:22;0.80;;;0.80;;
76477;SDS011;65309;49.790;18.972;2023-08-06T16:02:25;1.63;;;0.73;;
76477;SDS011;65309;49.790;18.972;2023-08-06T16:07:30;1.77;;;0.68;;
76477;SDS011;65309;49.790;18.972;2023-08-06T16:12:32;0.75;;;0.60;;
76477;SDS011;65309;49.790;18.972;2023-08-06T16:22:37;1.13;;;0.80;;
76477;SDS011;65309;49.790;18.972;2023-08-06T16:27:39;0.75;;;0.60;;
76477;SDS011;65309;49.790;18.972;2023-08-06T16:32:42;0.65;;;0.40;;
76477;SDS011;65309;49.790;18.972;2023-08-06T16:37:46;1.55;;;0.88;;
76477;SDS011;65309;49.790;18.972;2023-08-06T16:42:49;0.90;;;0.70;;
76477;SDS011;65309;49.790;18.972;2023-08-06T16:47:51;0.85;;;0.65;;
76477;SDS011;65309;49.790;18.972;2023-08-06T16:57:57;1.08;;;0.63;;
76477;SDS011;65309;49.790;18.972;2023-08-06T17:03:00;1.23;;;0.85;;
76477;SDS011;65309;49.790;18.972;2023-08-06T17:13:05;1.33;;;0.98;;
76477;SDS011;65309;49.790;18.972;2023-08-06T17:18:21;1.58;;;1.00;;
76477;SDS011;65309;49.790;18.972;2023-08-06T17:23:24;2.35;;;1.17;;
76477;SDS011;65309;49.790;18.972;2023-08-06T17:28:26;1.00;;;0.85;;
76477;SDS011;65309;49.790;18.972;2023-08-06T17:33:28;1.33;;;1.10;;
76477;SDS011;65309;49.790;18.972;2023-08-06T17:38:32;1.83;;;1.30;;
76477;SDS011;65309;49.790;18.972;2023-08-06T17:43:34;2.45;;;1.30;;
76477;SDS011;65309;49.790;18.972;2023-08-06T17:48:36;1.77;;;1.35;;
76477;SDS011;65309;49.790;18.972;2023-08-06T17:53:39;2.00;;;1.58;;
76477;SDS011;65309;49.790;18.972;2023-08-06T17:58:42;2.08;;;1.42;;
76477;SDS011;65309;49.790;18.972;2023-08-06T18:03:44;2.25;;;1.55;;
76477;SDS011;65309;49.790;18.972;2023-08-06T18:08:50;2.22;;;1.70;;
76477;SDS011;65309;49.790;18.972;2023-08-06T18:13:52;1.70;;;1.42;;
76477;SDS011;65309;49.790;18.972;2023-08-06T18:18:54;2.00;;;1.58;;
76477;SDS011;65309;49.790;18.972;2023-08-06T18:24:00;2.42;;;1.85;;
76477;SDS011;65309;49.790;18.972;2023-08-06T18:29:02;2.45;;;1.80;;
76477;SDS011;65309;49.790;18.972;2023-08-06T18:34:04;2.63;;;2.08;;
76477;SDS011;65309;49.790;18.972;2023-08-06T18:39:09;2.20;;;1.77;;
76477;SDS011;65309;49.790;18.972;2023-08-06T18:44:13;2.35;;;1.90;;
76477;SDS011;65309;49.790;18.972;2023-08-06T18:49:15;2.90;;;2.33;;
76477;SDS011;65309;49.790;18.972;2023-08-06T18:54:19;1.77;;;1.42;;
76477;SDS011;65309;49.790;18.972;2023-08-06T18:59:21;3.15;;;2.15;;
76477;SDS011;65309;49.790;18.972;2023-08-06T19:04:24;3.30;;;2.70;;
76477;SDS011;65309;49.790;18.972;2023-08-06T19:09:28;3.67;;;2.40;;
76477;SDS011;65309;49.790;18.972;2023-08-06T19:14:31;2.88;;;2.03;;
76477;SDS011;65309;49.790;18.972;2023-08-06T19:19:33;2.35;;;2.13;;
76477;SDS011;65309;49.790;18.972;2023-08-06T19:24:37;4.03;;;2.78;;
76477;SDS011;65309;49.790;18.972;2023-08-06T19:29:39;4.00;;;2.70;;
76477;SDS011;65309;49.790;18.972;2023-08-06T19:34:42;3.25;;;2.67;;
76477;SDS011;65309;49.790;18.972;2023-08-06T19:39:46;5.30;;;2.63;;
76477;SDS011;65309;49.790;18.972;2023-08-06T19:44:48;3.63;;;2.85;;
76477;SDS011;65309;49.790;18.972;2023-08-06T19:49:51;2.67;;;2.25;;
76477;SDS011;65309;49.790;18.972;2023-08-06T19:54:54;3.17;;;2.47;;
76477;SDS011;65309;49.790;18.972;2023-08-06T19:59:56;3.33;;;2.58;;
76477;SDS011;65309;49.790;18.972;2023-08-06T20:04:58;3.25;;;2.35;;
76477;SDS011;65309;49.790;18.972;2023-08-06T20:10:02;3.38;;;2.70;;
76477;SDS011;65309;49.790;18.972;2023-08-06T20:15:04;3.10;;;1.85;;
76477;SDS011;65309;49.790;18.972;2023-08-06T20:20:07;2.22;;;1.88;;
76477;SDS011;65309;49.790;18.972;2023-08-06T20:25:12;3.03;;;2.10;;
76477;SDS011;65309;49.790;18.972;2023-08-06T20:30:15;2.33;;;1.83;;
76477;SDS011;65309;49.790;18.972;2023-08-06T20:35:17;3.30;;;2.25;;
76477;SDS011;65309;49.790;18.972;2023-08-06T20:40:20;3.50;;;1.98;;
76477;SDS011;65309;49.790;18.972;2023-08-06T20:45:22;3.20;;;2.20;;
76477;SDS011;65309;49.790;18.972;2023-08-06T20:50:24;2.90;;;2.30;;
76477;SDS011;65309;49.790;18.972;2023-08-06T20:55:28;2.92;;;2.40;;
76477;SDS011;65309;49.790;18.972;2023-08-06T21:00:30;3.33;;;2.40;;
76477;SDS011;65309;49.790;18.972;2023-08-06T21:05:32;3.47;;;2.33;;
76477;SDS011;65309;49.790;18.972;2023-08-06T21:10:35;3.05;;;2.00;;
76477;SDS011;65309;49.790;18.972;2023-08-06T21:15:37;3.50;;;2.35;;
76477;SDS011;65309;49.790;18.972;2023-08-06T21:20:39;3.45;;;2.38;;
76477;SDS011;65309;49.790;18.972;2023-08-06T21:25:48;4.45;;;2.00;;
76477;SDS011;65309;49.790;18.972;2023-08-06T21:30:53;2.10;;;1.52;;
76477;SDS011;65309;49.790;18.972;2023-08-06T21:35:56;2.65;;;2.25;;
76477;SDS011;65309;49.790;18.972;2023-08-06T21:41:02;3.17;;;1.75;;
76477;SDS011;65309;49.790;18.972;2023-08-06T21:46:09;3.30;;;1.95;;
76477;SDS011;65309;49.790;18.972;2023-08-06T21:51:14;3.85;;;2.50;;
76477;SDS011;65309;49.790;18.972;2023-08-06T21:56:18;2.85;;;2.00;;
76477;SDS011;65309;49.790;18.972;2023-08-06T22:01:20;3.10;;;2.50;;
76477;SDS011;65309;49.790;18.972;2023-08-06T22:06:23;4.18;;;2.30;;
76477;SDS011;65309;49.790;18.972;2023-08-06T22:11:26;3.55;;;2.63;;
76477;SDS011;65309;49.790;18.972;2023-08-06T22:16:28;5.10;;;2.30;;
76477;SDS011;65309;49.790;18.972;2023-08-06T22:21:30;3.53;;;2.28;;
76477;SDS011;65309;49.790;18.972;2023-08-06T22:26:34;3.28;;;1.98;;
76477;SDS011;65309;49.790;18.972;2023-08-06T22:31:36;2.75;;;2.03;;
76477;SDS011;65309;49.790;18.972;2023-08-06T22:36:38;2.92;;;2.60;;
76477;SDS011;65309;49.790;18.972;2023-08-06T22:41:41;2.75;;;2.13;;
76477;SDS011;65309;49.790;18.972;2023-08-06T22:46:43;2.70;;;1.95;;
76477;SDS011;65309;49.790;18.972;2023-08-06T22:51:45;2.50;;;1.98;;
76477;SDS011;65309;49.790;18.972;2023-08-06T22:56:49;2.85;;;2.30;;
76477;SDS011;65309;49.790;18.972;2023-08-06T23:01:52;2.65;;;2.05;;
76477;SDS011;65309;49.790;18.972;2023-08-06T23:06:55;2.58;;;2.15;;
76477;SDS011;65309;49.790;18.972;2023-08-06T23:11:58;3.15;;;2.40;;
76477;SDS011;65309;49.790;18.972;2023-08-06T23:17:00;3.53;;;2.40;;
76477;SDS011;65309;49.790;18.972;2023-08-06T23:22:04;2.60;;;2.10;;
76477;SDS011;65309;49.790;18.972;2023-08-06T23:27:07;3.42;;;2.38;;
76477;SDS011;65309;49.790;18.972;2023-08-06T23:32:09;2.13;;;1.77;;
76477;SDS011;65309;49.790;18.972;2023-08-06T23:37:12;3.13;;;1.92;;
76477;SDS011;65309;49.790;18.972;2023-08-06T23:42:15;4.78;;;2.58;;
76477;SDS011;65309;49.790;18.972;2023-08-06T23:47:17;3.00;;;2.22;;
76477;SDS011;65309;49.790;18.972;2023-08-06T23:52:19;2.97;;;2.30;;
76477;SDS011;65309;49.790;18.972;2023-08-06T23:57:22;4.18;;;2.75;;
